sensor_id;sensor_type;location;lat;lon;timestamp;pressure;altitude;pressure_sealevel;temperature;humidity
4598;BME280;62772;48.646;8.906;2023-05-10T00:04:58;95683.88;;;12.36;100.00
4598;BME280;62772;48.646;8.906;2023-05-10T00:09:59;95681.03;;;11.83;100.00
4598;BME280;62772;48.646;8.906;2023-05-10T00:14:59;95685.28;;;11.72;100.00
4598;BME280;62772;48.646;8.906;2023-05-10T00:20:00;95688.69;;;11.48;100.00
4598;BME280;62772;48.646;8.906;2023-05-10T00:25:01;95688.91;;;11.42;100.00
4598;BME280;62772;48.646;8.906;2023-05-10T00:30:01;95685.91;;;11.44;100.00
4598;BME280;62772;48.646;8.906;2023-05-10T00:35:03;95691.53;;;11.30;100.00
4598;BME280;62772;48.646;8.906;2023-05-10T00:40:04;95691.63;;;11.79;100.00
4598;BME280;62772;48.646;8.906;2023-05-10T00:45:05;95700.31;;;11.76;100.00
4598;BME280;62772;48.646;8.906;2023-05-10T00:50:07;95705.28;;;11.99;100.00
4598;BME280;62772;48.646;8.906;2023-05-10T00:55:09;95700.69;;;11.87;100.00
4598;BME280;62772;48.646;8.906;2023-05-10T01:00:12;95704.69;;;11.35;100.00
4598;BME280;62772;48.646;8.906;2023-05-10T01:05:13;95706.22;;;11.70;100.00
4598;BME280;62772;48.646;8.906;2023-05-10T01:10:14;95704.53;;;11.65;100.00
4598;BME280;62772;48.646;8.906;2023-05-10T01:15:16;95712.97;;;11.88;100.00
4598;BME280;62772;48.646;8.906;2023-05-10T01:20:19;95712.44;;;11.61;100.00
4598;BME280;62772;48.646;8.906;2023-05-10T01:36:20;95723.09;;;11.49;100.00
4598;BME280;62772;48.646;8.906;2023-05-10T01:46:55;95732.13;;;11.44;100.00
4598;BME280;62772;48.646;8.906;2023-05-10T01:52:01;95736.25;;;11.21;100.00
4598;BME280;62772;48.646;8.906;2023-05-10T01:57:06;95738.06;;;11.29;100.00
4598;BME280;62772;48.646;8.906;2023-05-10T02:02:10;95750.28;;;11.51;100.00
4598;BME280;62772;48.646;8.906;2023-05-10T02:07:12;95752.09;;;11.26;100.00
4598;BME280;62772;48.646;8.906;2023-05-10T02:12:15;95753.22;;;11.25;100.00
4598;BME280;62772;48.646;8.906;2023-05-10T02:17:16;95750.22;;;11.60;100.00
4598;BME280;62772;48.646;8.906;2023-05-10T02:22:18;95752.19;;;11.84;100.00
4598;BME280;62772;48.646;8.906;2023-05-10T02:27:19;95758.94;;;12.03;100.00
4598;BME280;62772;48.646;8.906;2023-05-10T02:32:22;95773.81;;;11.46;100.00
4598;BME280;62772;48.646;8.906;2023-05-10T02:37:25;95771.00;;;11.21;100.00
4598;BME280;62772;48.646;8.906;2023-05-10T02:42:27;95770.31;;;11.78;100.00
4598;BME280;62772;48.646;8.906;2023-05-10T02:47:30;95768.97;;;11.93;100.00
4598;BME280;62772;48.646;8.906;2023-05-10T02:52:39;95772.84;;;11.62;100.00
4598;BME280;62772;48.646;8.906;2023-05-10T02:57:49;95772.88;;;11.41;100.00
4598;BME280;62772;48.646;8.906;2023-05-10T03:02:51;95775.66;;;11.45;100.00
4598;BME280;62772;48.646;8.906;2023-05-10T03:07:52;95784.91;;;11.69;100.00
4598;BME280;62772;48.646;8.906;2023-05-10T03:13:13;95786.00;;;11.13;100.00
4598;BME280;62772;48.646;8.906;2023-05-10T03:18:29;95777.91;;;11.43;100.00
4598;BME280;62772;48.646;8.906;2023-05-10T03:23:40;95776.16;;;11.59;100.00
4598;BME280;62772;48.646;8.906;2023-05-10T03:28:41;95780.97;;;11.12;100.00
4598;BME280;62772;48.646;8.906;2023-05-10T03:33:49;95791.97;;;11.10;100.00
4598;BME280;62772;48.646;8.906;2023-05-10T03:38:53;95796.56;;;11.31;100.00
4598;BME280;62772;48.646;8.906;2023-05-10T03:43:54;95799.09;;;10.85;100.00
4598;BME280;62772;48.646;8.906;2023-05-10T03:48:54;95805.28;;;10.98;100.00
4598;BME280;62772;48.646;8.906;2023-05-10T03:53:55;95804.69;;;10.92;100.00
4598;BME280;62772;48.646;8.906;2023-05-10T03:58:56;95801.56;;;10.90;100.00
4598;BME280;62772;48.646;8.906;2023-05-10T04:03:57;95799.53;;;10.57;100.00
4598;BME280;62772;48.646;8.906;2023-05-10T04:08:58;95811.78;;;10.58;100.00
4598;BME280;62772;48.646;8.906;2023-05-10T04:14:00;95813.41;;;10.80;100.00
4598;BME280;62772;48.646;8.906;2023-05-10T04:19:01;95802.47;;;10.34;100.00
4598;BME280;62772;48.646;8.906;2023-05-10T04:24:01;95814.31;;;10.55;100.00
4598;BME280;62772;48.646;8.906;2023-05-10T04:29:02;95819.31;;;10.56;100.00
4598;BME280;62772;48.646;8.906;2023-05-10T04:34:02;95817.94;;;10.80;100.00
4598;BME280;62772;48.646;8.906;2023-05-10T04:39:03;95807.78;;;11.24;100.00
4598;BME280;62772;48.646;8.906;2023-05-10T04:44:04;95822.00;;;10.86;100.00
4598;BME280;62772;48.646;8.906;2023-05-10T04:49:04;95820.91;;;10.57;100.00
4598;BME280;62772;48.646;8.906;2023-05-10T04:54:05;95830.16;;;10.89;100.00
4598;BME280;62772;48.646;8.906;2023-05-10T04:59:05;95823.81;;;11.03;100.00
4598;BME280;62772;48.646;8.906;2023-05-10T05:04:06;95828.91;;;11.17;100.00
4598;BME280;62772;48.646;8.906;2023-05-10T05:09:07;95828.72;;;10.92;100.00
4598;BME280;62772;48.646;8.906;2023-05-10T05:14:07;95828.69;;;10.71;100.00
4598;BME280;62772;48.646;8.906;2023-05-10T05:19:07;95846.03;;;10.86;100.00
4598;BME280;62772;48.646;8.906;2023-05-10T05:24:08;95843.19;;;10.91;100.00
4598;BME280;62772;48.646;8.906;2023-05-10T05:29:08;95846.09;;;10.77;100.00
4598;BME280;62772;48.646;8.906;2023-05-10T05:34:09;95843.41;;;11.07;100.00
4598;BME280;62772;48.646;8.906;2023-05-10T05:39:09;95845.97;;;11.24;100.00
4598;BME280;62772;48.646;8.906;2023-05-10T05:44:10;95853.72;;;11.17;100.00
4598;BME280;62772;48.646;8.906;2023-05-10T05:49:10;95841.09;;;11.48;100.00
4598;BME280;62772;48.646;8.906;2023-05-10T05:54:10;95844.38;;;11.53;100.00
4598;BME280;62772;48.646;8.906;2023-05-10T05:59:11;95857.34;;;11.42;100.00
4598;BME280;62772;48.646;8.906;2023-05-10T06:04:11;95859.53;;;11.19;100.00
4598;BME280;62772;48.646;8.906;2023-05-10T06:09:12;95866.50;;;11.12;100.00
4598;BME280;62772;48.646;8.906;2023-05-10T06:14:13;95872.72;;;11.46;100.00
4598;BME280;62772;48.646;8.906;2023-05-10T06:19:13;95876.56;;;11.36;100.00
4598;BME280;62772;48.646;8.906;2023-05-10T06:24:14;95879.03;;;11.20;100.00
4598;BME280;62772;48.646;8.906;2023-05-10T06:29:14;95883.03;;;11.35;100.00
4598;BME280;62772;48.646;8.906;2023-05-10T06:34:15;95894.50;;;11.56;100.00
4598;BME280;62772;48.646;8.906;2023-05-10T06:39:15;95898.09;;;11.60;100.00
4598;BME280;62772;48.646;8.906;2023-05-10T06:44:16;95893.19;;;11.62;100.00
4598;BME280;62772;48.646;8.906;2023-05-10T06:49:16;95901.50;;;11.70;100.00
4598;BME280;62772;48.646;8.906;2023-05-10T06:54:17;95893.31;;;11.87;100.00
4598;BME280;62772;48.646;8.906;2023-05-10T06:59:17;95888.41;;;12.10;100.00
4598;BME280;62772;48.646;8.906;2023-05-10T07:04:19;95889.22;;;12.11;100.00
4598;BME280;62772;48.646;8.906;2023-05-10T07:09:19;95890.19;;;11.85;100.00
4598;BME280;62772;48.646;8.906;2023-05-10T07:14:20;95884.53;;;11.87;100.00
4598;BME280;62772;48.646;8.906;2023-05-10T07:19:21;95890.91;;;11.73;100.00
4598;BME280;62772;48.646;8.906;2023-05-10T07:24:22;95901.72;;;11.77;100.00
4598;BME280;62772;48.646;8.906;2023-05-10T07:29:23;95905.53;;;11.97;100.00
4598;BME280;62772;48.646;8.906;2023-05-10T07:34:24;95901.03;;;12.10;100.00
4598;BME280;62772;48.646;8.906;2023-05-10T07:39:26;95903.00;;;12.01;100.00
4598;BME280;62772;48.646;8.906;2023-05-10T07:44:26;95898.09;;;12.03;100.00
4598;BME280;62772;48.646;8.906;2023-05-10T07:49:26;95898.69;;;11.87;100.00
4598;BME280;62772;48.646;8.906;2023-05-10T07:54:27;95901.56;;;11.82;100.00
4598;BME280;62772;48.646;8.906;2023-05-10T07:59:27;95898.72;;;12.21;100.00
4598;BME280;62772;48.646;8.906;2023-05-10T08:04:28;95905.59;;;11.88;100.00
4598;BME280;62772;48.646;8.906;2023-05-10T08:09:28;95915.56;;;12.21;100.00
4598;BME280;62772;48.646;8.906;2023-05-10T08:14:29;95906.78;;;12.33;100.00
4598;BME280;62772;48.646;8.906;2023-05-10T08:19:30;95923.09;;;12.07;100.00
4598;BME280;62772;48.646;8.906;2023-05-10T08:24:30;95925.72;;;12.28;100.00
4598;BME280;62772;48.646;8.906;2023-05-10T08:29:31;95922.75;;;12.42;100.00
4598;BME280;62772;48.646;8.906;2023-05-10T08:34:31;95930.34;;;12.40;100.00
4598;BME280;62772;48.646;8.906;2023-05-10T08:39:34;95930.25;;;12.15;100.00
4598;BME280;62772;48.646;8.906;2023-05-10T08:44:36;95936.03;;;12.38;100.00
4598;BME280;62772;48.646;8.906;2023-05-10T08:49:37;95941.88;;;12.52;100.00
4598;BME280;62772;48.646;8.906;2023-05-10T08:54:37;95943.41;;;12.87;100.00
4598;BME280;62772;48.646;8.906;2023-05-10T08:59:38;95956.22;;;12.81;100.00
4598;BME280;62772;48.646;8.906;2023-05-10T09:04:40;95957.25;;;12.89;100.00
4598;BME280;62772;48.646;8.906;2023-05-10T09:09:40;95953.28;;;12.74;100.00
4598;BME280;62772;48.646;8.906;2023-05-10T09:14:42;95959.25;;;12.92;100.00
4598;BME280;62772;48.646;8.906;2023-05-10T09:19:45;95959.13;;;13.01;100.00
4598;BME280;62772;48.646;8.906;2023-05-10T09:24:45;95960.41;;;13.40;100.00
4598;BME280;62772;48.646;8.906;2023-05-10T09:29:45;95956.88;;;12.78;100.00
4598;BME280;62772;48.646;8.906;2023-05-10T09:34:49;95957.66;;;12.79;100.00
4598;BME280;62772;48.646;8.906;2023-05-10T09:39:54;95970.88;;;12.84;100.00
4598;BME280;62772;48.646;8.906;2023-05-10T09:45:00;95955.59;;;12.97;100.00
4598;BME280;62772;48.646;8.906;2023-05-10T09:50:02;95966.88;;;13.15;100.00
4598;BME280;62772;48.646;8.906;2023-05-10T09:55:04;95959.94;;;13.26;100.00
4598;BME280;62772;48.646;8.906;2023-05-10T10:00:05;95967.44;;;13.20;100.00
4598;BME280;62772;48.646;8.906;2023-05-10T10:05:14;95969.78;;;13.22;100.00
4598;BME280;62772;48.646;8.906;2023-05-10T10:10:15;95970.22;;;13.24;100.00
4598;BME280;62772;48.646;8.906;2023-05-10T10:15:16;95957.72;;;13.53;100.00
4598;BME280;62772;48.646;8.906;2023-05-10T10:20:18;95964.41;;;13.71;100.00
4598;BME280;62772;48.646;8.906;2023-05-10T10:25:20;95963.34;;;13.88;100.00
4598;BME280;62772;48.646;8.906;2023-05-10T10:30:43;95983.13;;;12.73;100.00
4598;BME280;62772;48.646;8.906;2023-05-10T10:35:45;95992.75;;;12.19;100.00
4598;BME280;62772;48.646;8.906;2023-05-10T10:40:47;95989.69;;;12.08;100.00
4598;BME280;62772;48.646;8.906;2023-05-10T10:46:12;96000.16;;;11.71;100.00
4598;BME280;62772;48.646;8.906;2023-05-10T10:51:14;95997.59;;;11.15;100.00
4598;BME280;62772;48.646;8.906;2023-05-10T10:56:14;96002.91;;;10.77;100.00
4598;BME280;62772;48.646;8.906;2023-05-10T11:01:17;96000.41;;;10.80;100.00
4598;BME280;62772;48.646;8.906;2023-05-10T11:06:31;95988.19;;;11.09;100.00
4598;BME280;62772;48.646;8.906;2023-05-10T11:11:34;95986.22;;;11.27;100.00
4598;BME280;62772;48.646;8.906;2023-05-10T11:16:42;95987.00;;;11.57;100.00
4598;BME280;62772;48.646;8.906;2023-05-10T11:26:52;95995.50;;;12.44;100.00
4598;BME280;62772;48.646;8.906;2023-05-10T11:31:57;96004.03;;;12.58;100.00
4598;BME280;62772;48.646;8.906;2023-05-10T11:36:57;96007.91;;;12.82;100.00
4598;BME280;62772;48.646;8.906;2023-05-10T11:41:58;96014.28;;;13.35;100.00
4598;BME280;62772;48.646;8.906;2023-05-10T11:47:00;96008.34;;;13.42;100.00
4598;BME280;62772;48.646;8.906;2023-05-10T11:52:05;96011.16;;;13.58;100.00
4598;BME280;62772;48.646;8.906;2023-05-10T11:57:06;96012.88;;;13.17;100.00
4598;BME280;62772;48.646;8.906;2023-05-10T12:02:06;96022.78;;;13.37;100.00
4598;BME280;62772;48.646;8.906;2023-05-10T12:07:09;96022.00;;;12.91;100.00
4598;BME280;62772;48.646;8.906;2023-05-10T12:12:09;96029.34;;;12.82;100.00
4598;BME280;62772;48.646;8.906;2023-05-10T12:17:13;96026.31;;;12.71;100.00
4598;BME280;62772;48.646;8.906;2023-05-10T12:22:13;96025.81;;;12.90;100.00
4598;BME280;62772;48.646;8.906;2023-05-10T12:27:14;96022.50;;;13.18;100.00
4598;BME280;62772;48.646;8.906;2023-05-10T12:32:15;96023.50;;;13.13;100.00
4598;BME280;62772;48.646;8.906;2023-05-10T12:37:15;96023.22;;;12.81;100.00
4598;BME280;62772;48.646;8.906;2023-05-10T12:42:16;96021.25;;;13.03;100.00
4598;BME280;62772;48.646;8.906;2023-05-10T12:47:16;96028.78;;;13.22;100.00
4598;BME280;62772;48.646;8.906;2023-05-10T12:52:17;96023.88;;;12.78;100.00
4598;BME280;62772;48.646;8.906;2023-05-10T12:57:17;96036.84;;;13.34;100.00
4598;BME280;62772;48.646;8.906;2023-05-10T13:02:18;96023.56;;;13.38;100.00
4598;BME280;62772;48.646;8.906;2023-05-10T13:07:18;96029.22;;;13.24;100.00
4598;BME280;62772;48.646;8.906;2023-05-10T13:12:19;96031.81;;;13.33;100.00
4598;BME280;62772;48.646;8.906;2023-05-10T13:17:19;96021.88;;;13.83;100.00
4598;BME280;62772;48.646;8.906;2023-05-10T13:22:20;96023.19;;;13.27;100.00
4598;BME280;62772;48.646;8.906;2023-05-10T13:27:20;96018.03;;;13.96;100.00
4598;BME280;62772;48.646;8.906;2023-05-10T13:32:21;96011.72;;;13.51;100.00
4598;BME280;62772;48.646;8.906;2023-05-10T13:37:21;96013.47;;;13.84;100.00
4598;BME280;62772;48.646;8.906;2023-05-10T13:42:22;96004.78;;;13.63;100.00
4598;BME280;62772;48.646;8.906;2023-05-10T13:47:23;96008.16;;;14.12;100.00
4598;BME280;62772;48.646;8.906;2023-05-10T13:52:24;96005.38;;;13.96;100.00
4598;BME280;62772;48.646;8.906;2023-05-10T13:57:24;96009.63;;;14.10;100.00
4598;BME280;62772;48.646;8.906;2023-05-10T14:02:25;95993.59;;;13.73;100.00
4598;BME280;62772;48.646;8.906;2023-05-10T14:07:27;95992.75;;;14.09;100.00
4598;BME280;62772;48.646;8.906;2023-05-10T14:12:27;95991.94;;;13.68;100.00
4598;BME280;62772;48.646;8.906;2023-05-10T14:17:28;95982.47;;;13.87;96.26
4598;BME280;62772;48.646;8.906;2023-05-10T14:22:29;95985.91;;;14.00;94.18
4598;BME280;62772;48.646;8.906;2023-05-10T14:27:29;95981.25;;;14.25;96.22
4598;BME280;62772;48.646;8.906;2023-05-10T14:32:30;95982.34;;;14.64;91.83
4598;BME280;62772;48.646;8.906;2023-05-10T14:37:32;95972.72;;;14.35;100.00
4598;BME280;62772;48.646;8.906;2023-05-10T14:42:32;95989.91;;;14.18;93.35
4598;BME280;62772;48.646;8.906;2023-05-10T14:47:33;95984.06;;;13.88;92.77
4598;BME280;62772;48.646;8.906;2023-05-10T14:52:33;95990.34;;;13.79;93.89
4598;BME280;62772;48.646;8.906;2023-05-10T14:57:33;95986.66;;;13.59;92.86
4598;BME280;62772;48.646;8.906;2023-05-10T15:02:34;95985.50;;;13.85;95.23
4598;BME280;62772;48.646;8.906;2023-05-10T15:07:34;95987.09;;;13.61;94.04
4598;BME280;62772;48.646;8.906;2023-05-10T15:12:35;95985.81;;;13.96;100.00
4598;BME280;62772;48.646;8.906;2023-05-10T15:17:35;95981.00;;;14.02;96.48
4598;BME280;62772;48.646;8.906;2023-05-10T15:22:35;95986.84;;;13.91;92.59
4598;BME280;62772;48.646;8.906;2023-05-10T15:27:36;95986.94;;;14.36;95.58
4598;BME280;62772;48.646;8.906;2023-05-10T15:32:37;95997.19;;;14.18;90.25
4598;BME280;62772;48.646;8.906;2023-05-10T15:37:39;95989.88;;;14.59;93.72
4598;BME280;62772;48.646;8.906;2023-05-10T15:42:39;96006.19;;;14.66;95.56
4598;BME280;62772;48.646;8.906;2023-05-10T15:47:40;95997.97;;;14.46;94.60
4598;BME280;62772;48.646;8.906;2023-05-10T15:52:40;95999.41;;;14.84;96.38
4598;BME280;62772;48.646;8.906;2023-05-10T15:57:43;95994.50;;;14.46;87.33
4598;BME280;62772;48.646;8.906;2023-05-10T16:02:43;95997.47;;;14.28;92.08
4598;BME280;62772;48.646;8.906;2023-05-10T16:07:44;95995.03;;;14.23;90.74
4598;BME280;62772;48.646;8.906;2023-05-10T16:12:44;96004.16;;;14.06;95.21
4598;BME280;62772;48.646;8.906;2023-05-10T16:17:44;96011.44;;;14.34;93.98
4598;BME280;62772;48.646;8.906;2023-05-10T16:22:45;96009.59;;;14.22;99.32
4598;BME280;62772;48.646;8.906;2023-05-10T16:27:45;96020.09;;;14.27;100.00
4598;BME280;62772;48.646;8.906;2023-05-10T16:32:46;96027.19;;;14.07;100.00
4598;BME280;62772;48.646;8.906;2023-05-10T16:37:47;96034.47;;;13.94;100.00
4598;BME280;62772;48.646;8.906;2023-05-10T16:42:47;96019.34;;;14.14;100.00
4598;BME280;62772;48.646;8.906;2023-05-10T16:47:48;96034.47;;;13.94;100.00
4598;BME280;62772;48.646;8.906;2023-05-10T16:52:48;96039.25;;;13.15;100.00
4598;BME280;62772;48.646;8.906;2023-05-10T16:57:48;96043.00;;;12.89;100.00
4598;BME280;62772;48.646;8.906;2023-05-10T17:02:49;96039.38;;;13.31;100.00
4598;BME280;62772;48.646;8.906;2023-05-10T17:07:50;96039.19;;;13.85;100.00
4598;BME280;62772;48.646;8.906;2023-05-10T17:12:50;96047.16;;;12.99;100.00
4598;BME280;62772;48.646;8.906;2023-05-10T17:17:52;96051.41;;;12.66;100.00
4598;BME280;62772;48.646;8.906;2023-05-10T17:22:53;96060.56;;;13.45;100.00
4598;BME280;62772;48.646;8.906;2023-05-10T17:27:53;96058.88;;;13.65;100.00
4598;BME280;62772;48.646;8.906;2023-05-10T17:32:54;96055.97;;;13.82;100.00
4598;BME280;62772;48.646;8.906;2023-05-10T17:37:54;96060.41;;;14.03;100.00
4598;BME280;62772;48.646;8.906;2023-05-10T17:42:55;96060.75;;;14.01;100.00
4598;BME280;62772;48.646;8.906;2023-05-10T17:47:55;96069.38;;;13.94;100.00
4598;BME280;62772;48.646;8.906;2023-05-10T17:52:56;96077.22;;;13.75;100.00
4598;BME280;62772;48.646;8.906;2023-05-10T17:57:58;96074.31;;;14.05;100.00
4598;BME280;62772;48.646;8.906;2023-05-10T18:02:59;96078.44;;;13.90;100.00
4598;BME280;62772;48.646;8.906;2023-05-10T18:08:00;96081.81;;;13.62;100.00
4598;BME280;62772;48.646;8.906;2023-05-10T18:13:00;96080.25;;;13.61;100.00
4598;BME280;62772;48.646;8.906;2023-05-10T18:18:04;96065.25;;;13.85;100.00
4598;BME280;62772;48.646;8.906;2023-05-10T18:23:04;96075.63;;;13.37;100.00
4598;BME280;62772;48.646;8.906;2023-05-10T18:28:05;96068.06;;;13.64;100.00
4598;BME280;62772;48.646;8.906;2023-05-10T18:33:07;96074.66;;;13.66;100.00
4598;BME280;62772;48.646;8.906;2023-05-10T18:38:10;96083.38;;;12.72;100.00
4598;BME280;62772;48.646;8.906;2023-05-10T18:43:12;96080.00;;;13.41;100.00
4598;BME280;62772;48.646;8.906;2023-05-10T18:48:13;96089.78;;;12.92;100.00
4598;BME280;62772;48.646;8.906;2023-05-10T18:53:13;96089.66;;;12.55;100.00
4598;BME280;62772;48.646;8.906;2023-05-10T18:58:14;96095.22;;;12.28;100.00
4598;BME280;62772;48.646;8.906;2023-05-10T19:03:14;96096.81;;;12.84;100.00
4598;BME280;62772;48.646;8.906;2023-05-10T19:08:15;96102.25;;;13.09;100.00
4598;BME280;62772;48.646;8.906;2023-05-10T19:13:16;96093.91;;;12.56;100.00
4598;BME280;62772;48.646;8.906;2023-05-10T19:18:16;96101.38;;;12.83;100.00
4598;BME280;62772;48.646;8.906;2023-05-10T19:23:17;96113.22;;;12.82;100.00
4598;BME280;62772;48.646;8.906;2023-05-10T19:28:17;96121.53;;;12.68;100.00
4598;BME280;62772;48.646;8.906;2023-05-10T19:33:18;96122.31;;;13.02;100.00
4598;BME280;62772;48.646;8.906;2023-05-10T19:38:20;96117.34;;;12.80;100.00
4598;BME280;62772;48.646;8.906;2023-05-10T19:43:21;96127.25;;;12.58;100.00
4598;BME280;62772;48.646;8.906;2023-05-10T19:48:21;96119.81;;;12.85;100.00
4598;BME280;62772;48.646;8.906;2023-05-10T19:53:22;96127.59;;;12.78;100.00
4598;BME280;62772;48.646;8.906;2023-05-10T19:58:22;96122.72;;;12.59;100.00
4598;BME280;62772;48.646;8.906;2023-05-10T20:03:23;96115.63;;;12.75;100.00
4598;BME280;62772;48.646;8.906;2023-05-10T20:08:24;96122.72;;;12.38;100.00
4598;BME280;62772;48.646;8.906;2023-05-10T20:13:24;96122.81;;;11.90;100.00
4598;BME280;62772;48.646;8.906;2023-05-10T20:18:25;96116.34;;;11.53;100.00
4598;BME280;62772;48.646;8.906;2023-05-10T20:23:26;96120.88;;;11.61;100.00
4598;BME280;62772;48.646;8.906;2023-05-10T20:28:26;96119.09;;;11.27;100.00
4598;BME280;62772;48.646;8.906;2023-05-10T20:33:27;96110.84;;;11.88;100.00
4598;BME280;62772;48.646;8.906;2023-05-10T20:38:27;96111.16;;;11.86;100.00
4598;BME280;62772;48.646;8.906;2023-05-10T20:43:28;96116.38;;;11.44;100.00
4598;BME280;62772;48.646;8.906;2023-05-10T20:48:28;96110.66;;;11.54;100.00
4598;BME280;62772;48.646;8.906;2023-05-10T20:53:29;96108.13;;;11.58;100.00
4598;BME280;62772;48.646;8.906;2023-05-10T20:58:29;96106.06;;;11.64;100.00
4598;BME280;62772;48.646;8.906;2023-05-10T21:03:30;96107.38;;;11.01;100.00
4598;BME280;62772;48.646;8.906;2023-05-10T21:08:33;96106.56;;;11.10;100.00
4598;BME280;62772;48.646;8.906;2023-05-10T21:13:33;96104.47;;;11.33;100.00
4598;BME280;62772;48.646;8.906;2023-05-10T21:18:34;96101.56;;;10.91;100.00
4598;BME280;62772;48.646;8.906;2023-05-10T21:23:35;96099.38;;;10.75;100.00
4598;BME280;62772;48.646;8.906;2023-05-10T21:28:35;96101.88;;;10.71;100.00
4598;BME280;62772;48.646;8.906;2023-05-10T21:33:36;96098.03;;;11.25;100.00
4598;BME280;62772;48.646;8.906;2023-05-10T21:38:36;96105.81;;;10.65;100.00
4598;BME280;62772;48.646;8.906;2023-05-10T21:43:37;96093.91;;;10.45;100.00
4598;BME280;62772;48.646;8.906;2023-05-10T21:48:37;96092.75;;;10.29;100.00
4598;BME280;62772;48.646;8.906;2023-05-10T21:53:38;96094.69;;;9.71;100.00
4598;BME280;62772;48.646;8.906;2023-05-10T21:58:38;96092.47;;;10.39;100.00
4598;BME280;62772;48.646;8.906;2023-05-10T22:03:38;96090.91;;;9.72;100.00
4598;BME280;62772;48.646;8.906;2023-05-10T22:08:39;96085.59;;;9.80;100.00
4598;BME280;62772;48.646;8.906;2023-05-10T22:13:39;96087.03;;;9.87;100.00
4598;BME280;62772;48.646;8.906;2023-05-10T22:18:41;96090.38;;;10.10;100.00
4598;BME280;62772;48.646;8.906;2023-05-10T22:23:42;96092.78;;;10.38;100.00
4598;BME280;62772;48.646;8.906;2023-05-10T22:28:42;96097.31;;;10.37;100.00
4598;BME280;62772;48.646;8.906;2023-05-10T22:33:43;96095.72;;;10.19;100.00
4598;BME280;62772;48.646;8.906;2023-05-10T22:38:43;96096.88;;;10.52;100.00
4598;BME280;62772;48.646;8.906;2023-05-10T22:43:44;96091.53;;;10.52;100.00
4598;BME280;62772;48.646;8.906;2023-05-10T22:48:44;96089.66;;;10.62;100.00
4598;BME280;62772;48.646;8.906;2023-05-10T22:53:45;96084.44;;;10.65;100.00
4598;BME280;62772;48.646;8.906;2023-05-10T22:58:45;96092.44;;;10.83;100.00
4598;BME280;62772;48.646;8.906;2023-05-10T23:03:46;96087.69;;;10.01;100.00
4598;BME280;62772;48.646;8.906;2023-05-10T23:08:46;96086.97;;;10.79;100.00
4598;BME280;62772;48.646;8.906;2023-05-10T23:13:47;96088.19;;;10.99;100.00
4598;BME280;62772;48.646;8.906;2023-05-10T23:18:47;96083.78;;;11.12;100.00
4598;BME280;62772;48.646;8.906;2023-05-10T23:23:48;96096.22;;;10.99;100.00
4598;BME280;62772;48.646;8.906;2023-05-10T23:28:48;96096.81;;;11.05;100.00
4598;BME280;62772;48.646;8.906;2023-05-10T23:33:49;96096.06;;;10.61;100.00
4598;BME280;62772;48.646;8.906;2023-05-10T23:38:49;96090.69;;;10.17;100.00
4598;BME280;62772;48.646;8.906;2023-05-10T23:43:50;96088.63;;;10.05;100.00
4598;BME280;62772;48.646;8.906;2023-05-10T23:48:50;96091.63;;;10.21;100.00
4598;BME280;62772;48.646;8.906;2023-05-10T23:53:50;96093.63;;;9.89;100.00
4598;BME280;62772;48.646;8.906;2023-05-10T23:58:51;96089.00;;;9.63;100.00
